sensor_id;sensor_type;location;lat;lon;timestamp;P1;P2;P0
56069;PMS5003;41944;52.078;-0.058;2022-08-16T00:01:29;18;16;
56069;PMS5003;41944;52.078;-0.058;2022-08-16T00:03:56;12;12;
56069;PMS5003;41944;52.078;-0.058;2022-08-16T00:06:23;19;17;
56069;PMS5003;41944;52.078;-0.058;2022-08-16T00:08:51;13;13;
56069;PMS5003;41944;52.078;-0.058;2022-08-16T00:11:18;15;15;
56069;PMS5003;41944;52.078;-0.058;2022-08-16T00:13:47;18;15;
56069;PMS5003;41944;52.078;-0.058;2022-08-16T00:16:16;14;14;
56069;PMS5003;41944;52.078;-0.058;2022-08-16T00:18:43;15;13;
56069;PMS5003;41944;52.078;-0.058;2022-08-16T00:21:10;16;15;
56069;PMS5003;41944;52.078;-0.058;2022-08-16T00:23:37;18;18;
56069;PMS5003;41944;52.078;-0.058;2022-08-16T00:26:04;15;15;
56069;PMS5003;41944;52.078;-0.058;2022-08-16T00:28:31;16;15;
56069;PMS5003;41944;52.078;-0.058;2022-08-16T00:30:58;19;13;
56069;PMS5003;41944;52.078;-0.058;2022-08-16T00:33:25;16;16;
56069;PMS5003;41944;52.078;-0.058;2022-08-16T00:35:52;16;15;
56069;PMS5003;41944;52.078;-0.058;2022-08-16T00:38:19;15;15;
56069;PMS5003;41944;52.078;-0.058;2022-08-16T00:40:48;13;12;
56069;PMS5003;41944;52.078;-0.058;2022-08-16T00:43:18;15;15;
56069;PMS5003;41944;52.078;-0.058;2022-08-16T00:45:49;20;18;
56069;PMS5003;41944;52.078;-0.058;2022-08-16T00:48:21;15;15;
56069;PMS5003;41944;52.078;-0.058;2022-08-16T00:50:48;17;14;
56069;PMS5003;41944;52.078;-0.058;2022-08-16T00:53:16;17;17;
56069;PMS5003;41944;52.078;-0.058;2022-08-16T00:55:45;17;17;
56069;PMS5003;41944;52.078;-0.058;2022-08-16T00:58:15;15;14;
56069;PMS5003;41944;52.078;-0.058;2022-08-16T01:00:44;17;15;
56069;PMS5003;41944;52.078;-0.058;2022-08-16T01:03:13;16;14;
56069;PMS5003;41944;52.078;-0.058;2022-08-16T01:05:43;17;15;
56069;PMS5003;41944;52.078;-0.058;2022-08-16T01:08:12;16;14;
56069;PMS5003;41944;52.078;-0.058;2022-08-16T01:10:42;17;15;
56069;PMS5003;41944;52.078;-0.058;2022-08-16T01:13:10;17;15;
56069;PMS5003;41944;52.078;-0.058;2022-08-16T01:15:40;16;16;
56069;PMS5003;41944;52.078;-0.058;2022-08-16T01:18:14;18;15;
56069;PMS5003;41944;52.078;-0.058;2022-08-16T01:20:44;20;17;
56069;PMS5003;41944;52.078;-0.058;2022-08-16T01:23:33;19;18;
56069;PMS5003;41944;52.078;-0.058;2022-08-16T01:26:03;16;16;
56069;PMS5003;41944;52.078;-0.058;2022-08-16T01:28:31;19;19;
56069;PMS5003;41944;52.078;-0.058;2022-08-16T01:30:58;19;19;
56069;PMS5003;41944;52.078;-0.058;2022-08-16T01:33:27;15;15;
56069;PMS5003;41944;52.078;-0.058;2022-08-16T01:35:55;13;13;
56069;PMS5003;41944;52.078;-0.058;2022-08-16T01:38:28;17;15;
56069;PMS5003;41944;52.078;-0.058;2022-08-16T01:41:00;16;16;
56069;PMS5003;41944;52.078;-0.058;2022-08-16T01:43:30;19;17;
56069;PMS5003;41944;52.078;-0.058;2022-08-16T01:45:59;15;15;
56069;PMS5003;41944;52.078;-0.058;2022-08-16T01:48:30;14;14;
56069;PMS5003;41944;52.078;-0.058;2022-08-16T01:50:59;17;17;
56069;PMS5003;41944;52.078;-0.058;2022-08-16T01:53:28;17;16;
56069;PMS5003;41944;52.078;-0.058;2022-08-16T01:55:56;23;18;
56069;PMS5003;41944;52.078;-0.058;2022-08-16T01:58:23;17;17;
56069;PMS5003;41944;52.078;-0.058;2022-08-16T02:00:51;17;15;
56069;PMS5003;41944;52.078;-0.058;2022-08-16T02:03:18;18;16;
56069;PMS5003;41944;52.078;-0.058;2022-08-16T02:05:45;18;18;
56069;PMS5003;41944;52.078;-0.058;2022-08-16T02:08:13;22;20;
56069;PMS5003;41944;52.078;-0.058;2022-08-16T02:10:40;16;15;
56069;PMS5003;41944;52.078;-0.058;2022-08-16T02:13:08;17;17;
56069;PMS5003;41944;52.078;-0.058;2022-08-16T02:15:36;16;16;
56069;PMS5003;41944;52.078;-0.058;2022-08-16T02:18:04;20;17;
56069;PMS5003;41944;52.078;-0.058;2022-08-16T02:20:33;19;17;
56069;PMS5003;41944;52.078;-0.058;2022-08-16T02:23:03;17;15;
56069;PMS5003;41944;52.078;-0.058;2022-08-16T02:25:31;15;15;
56069;PMS5003;41944;52.078;-0.058;2022-08-16T02:28:00;17;16;
56069;PMS5003;41944;52.078;-0.058;2022-08-16T02:30:28;17;15;
56069;PMS5003;41944;52.078;-0.058;2022-08-16T02:32:57;15;15;
56069;PMS5003;41944;52.078;-0.058;2022-08-16T02:35:24;13;13;
56069;PMS5003;41944;52.078;-0.058;2022-08-16T02:37:52;20;17;
56069;PMS5003;41944;52.078;-0.058;2022-08-16T02:40:20;13;12;
56069;PMS5003;41944;52.078;-0.058;2022-08-16T02:42:49;13;13;
56069;PMS5003;41944;52.078;-0.058;2022-08-16T02:45:24;17;17;
56069;PMS5003;41944;52.078;-0.058;2022-08-16T02:47:52;18;16;
56069;PMS5003;41944;52.078;-0.058;2022-08-16T02:50:21;17;15;
56069;PMS5003;41944;52.078;-0.058;2022-08-16T02:52:48;15;15;
56069;PMS5003;41944;52.078;-0.058;2022-08-16T02:55:15;17;15;
56069;PMS5003;41944;52.078;-0.058;2022-08-16T02:57:43;18;18;
56069;PMS5003;41944;52.078;-0.058;2022-08-16T03:00:11;17;16;
56069;PMS5003;41944;52.078;-0.058;2022-08-16T03:02:40;13;13;
56069;PMS5003;41944;52.078;-0.058;2022-08-16T03:05:08;15;15;
56069;PMS5003;41944;52.078;-0.058;2022-08-16T03:07:38;15;15;
56069;PMS5003;41944;52.078;-0.058;2022-08-16T03:10:06;13;13;
56069;PMS5003;41944;52.078;-0.058;2022-08-16T03:12:35;16;15;
56069;PMS5003;41944;52.078;-0.058;2022-08-16T03:15:03;14;14;
56069;PMS5003;41944;52.078;-0.058;2022-08-16T03:17:31;16;16;
56069;PMS5003;41944;52.078;-0.058;2022-08-16T03:19:58;14;13;
56069;PMS5003;41944;52.078;-0.058;2022-08-16T03:22:25;16;15;
56069;PMS5003;41944;52.078;-0.058;2022-08-16T03:24:53;15;15;
56069;PMS5003;41944;52.078;-0.058;2022-08-16T03:27:20;19;16;
56069;PMS5003;41944;52.078;-0.058;2022-08-16T03:29:47;17;17;
56069;PMS5003;41944;52.078;-0.058;2022-08-16T03:32:14;18;16;
56069;PMS5003;41944;52.078;-0.058;2022-08-16T03:34:41;18;17;
56069;PMS5003;41944;52.078;-0.058;2022-08-16T03:37:09;13;13;
56069;PMS5003;41944;52.078;-0.058;2022-08-16T03:39:36;18;18;
56069;PMS5003;41944;52.078;-0.058;2022-08-16T03:42:03;13;13;
56069;PMS5003;41944;52.078;-0.058;2022-08-16T03:44:31;16;15;
56069;PMS5003;41944;52.078;-0.058;2022-08-16T03:46:58;16;16;
56069;PMS5003;41944;52.078;-0.058;2022-08-16T03:49:25;16;14;
56069;PMS5003;41944;52.078;-0.058;2022-08-16T03:51:52;18;17;
56069;PMS5003;41944;52.078;-0.058;2022-08-16T03:54:19;19;16;
56069;PMS5003;41944;52.078;-0.058;2022-08-16T03:56:47;18;18;
56069;PMS5003;41944;52.078;-0.058;2022-08-16T03:59:14;18;16;
56069;PMS5003;41944;52.078;-0.058;2022-08-16T04:01:41;16;16;
56069;PMS5003;41944;52.078;-0.058;2022-08-16T04:04:08;17;17;
56069;PMS5003;41944;52.078;-0.058;2022-08-16T04:06:36;16;14;
56069;PMS5003;41944;52.078;-0.058;2022-08-16T04:09:03;17;17;
56069;PMS5003;41944;52.078;-0.058;2022-08-16T04:11:29;17;16;
56069;PMS5003;41944;52.078;-0.058;2022-08-16T04:13:56;17;16;
56069;PMS5003;41944;52.078;-0.058;2022-08-16T04:16:24;20;18;
56069;PMS5003;41944;52.078;-0.058;2022-08-16T04:18:50;19;19;
56069;PMS5003;41944;52.078;-0.058;2022-08-16T04:21:17;19;18;
56069;PMS5003;41944;52.078;-0.058;2022-08-16T04:23:44;24;23;
56069;PMS5003;41944;52.078;-0.058;2022-08-16T04:26:11;20;20;
56069;PMS5003;41944;52.078;-0.058;2022-08-16T04:28:38;25;21;
56069;PMS5003;41944;52.078;-0.058;2022-08-16T04:31:05;22;20;
56069;PMS5003;41944;52.078;-0.058;2022-08-16T04:33:32;25;25;
56069;PMS5003;41944;52.078;-0.058;2022-08-16T04:35:59;24;22;
56069;PMS5003;41944;52.078;-0.058;2022-08-16T04:38:27;22;20;
56069;PMS5003;41944;52.078;-0.058;2022-08-16T04:40:54;22;20;
56069;PMS5003;41944;52.078;-0.058;2022-08-16T04:43:22;20;20;
56069;PMS5003;41944;52.078;-0.058;2022-08-16T04:45:48;21;18;
56069;PMS5003;41944;52.078;-0.058;2022-08-16T04:48:15;17;16;
56069;PMS5003;41944;52.078;-0.058;2022-08-16T04:50:42;20;19;
56069;PMS5003;41944;52.078;-0.058;2022-08-16T04:53:10;22;20;
56069;PMS5003;41944;52.078;-0.058;2022-08-16T04:55:37;19;18;
56069;PMS5003;41944;52.078;-0.058;2022-08-16T04:58:05;18;18;
56069;PMS5003;41944;52.078;-0.058;2022-08-16T05:00:34;18;18;
56069;PMS5003;41944;52.078;-0.058;2022-08-16T05:03:02;25;22;
56069;PMS5003;41944;52.078;-0.058;2022-08-16T05:05:30;19;19;
56069;PMS5003;41944;52.078;-0.058;2022-08-16T05:07:58;20;19;
56069;PMS5003;41944;52.078;-0.058;2022-08-16T05:10:26;20;18;
56069;PMS5003;41944;52.078;-0.058;2022-08-16T05:12:53;20;18;
56069;PMS5003;41944;52.078;-0.058;2022-08-16T05:15:20;20;17;
56069;PMS5003;41944;52.078;-0.058;2022-08-16T05:17:48;19;19;
56069;PMS5003;41944;52.078;-0.058;2022-08-16T05:20:15;18;18;
56069;PMS5003;41944;52.078;-0.058;2022-08-16T05:22:42;18;17;
56069;PMS5003;41944;52.078;-0.058;2022-08-16T05:25:10;19;17;
56069;PMS5003;41944;52.078;-0.058;2022-08-16T05:27:38;16;16;
56069;PMS5003;41944;52.078;-0.058;2022-08-16T05:30:06;18;17;
56069;PMS5003;41944;52.078;-0.058;2022-08-16T05:32:34;19;18;
56069;PMS5003;41944;52.078;-0.058;2022-08-16T05:35:03;20;18;
56069;PMS5003;41944;52.078;-0.058;2022-08-16T05:37:32;20;19;
56069;PMS5003;41944;52.078;-0.058;2022-08-16T05:39:59;18;17;
56069;PMS5003;41944;52.078;-0.058;2022-08-16T05:42:27;18;18;
56069;PMS5003;41944;52.078;-0.058;2022-08-16T05:44:54;21;20;
56069;PMS5003;41944;52.078;-0.058;2022-08-16T05:47:21;20;20;
56069;PMS5003;41944;52.078;-0.058;2022-08-16T05:49:48;20;20;
56069;PMS5003;41944;52.078;-0.058;2022-08-16T05:52:15;22;20;
56069;PMS5003;41944;52.078;-0.058;2022-08-16T05:54:43;28;28;
56069;PMS5003;41944;52.078;-0.058;2022-08-16T05:57:10;20;20;
56069;PMS5003;41944;52.078;-0.058;2022-08-16T05:59:37;24;22;
56069;PMS5003;41944;52.078;-0.058;2022-08-16T06:02:05;21;21;
56069;PMS5003;41944;52.078;-0.058;2022-08-16T06:04:32;20;20;
56069;PMS5003;41944;52.078;-0.058;2022-08-16T06:07:00;18;18;
56069;PMS5003;41944;52.078;-0.058;2022-08-16T06:09:27;21;20;
56069;PMS5003;41944;52.078;-0.058;2022-08-16T06:11:54;20;19;
56069;PMS5003;41944;52.078;-0.058;2022-08-16T06:14:21;25;19;
56069;PMS5003;41944;52.078;-0.058;2022-08-16T06:16:49;27;25;
56069;PMS5003;41944;52.078;-0.058;2022-08-16T06:19:15;22;21;
56069;PMS5003;41944;52.078;-0.058;2022-08-16T06:21:43;19;19;
56069;PMS5003;41944;52.078;-0.058;2022-08-16T06:24:10;20;18;
56069;PMS5003;41944;52.078;-0.058;2022-08-16T06:26:37;20;20;
56069;PMS5003;41944;52.078;-0.058;2022-08-16T06:29:04;18;18;
56069;PMS5003;41944;52.078;-0.058;2022-08-16T06:31:31;24;21;
56069;PMS5003;41944;52.078;-0.058;2022-08-16T06:33:58;20;20;
56069;PMS5003;41944;52.078;-0.058;2022-08-16T06:36:26;19;18;
56069;PMS5003;41944;52.078;-0.058;2022-08-16T06:38:53;21;20;
56069;PMS5003;41944;52.078;-0.058;2022-08-16T06:41:20;21;21;
56069;PMS5003;41944;52.078;-0.058;2022-08-16T06:43:48;20;19;
56069;PMS5003;41944;52.078;-0.058;2022-08-16T06:46:23;17;17;
56069;PMS5003;41944;52.078;-0.058;2022-08-16T06:48:52;23;23;
56069;PMS5003;41944;52.078;-0.058;2022-08-16T06:51:20;16;16;
56069;PMS5003;41944;52.078;-0.058;2022-08-16T06:53:47;21;19;
56069;PMS5003;41944;52.078;-0.058;2022-08-16T06:56:14;20;19;
56069;PMS5003;41944;52.078;-0.058;2022-08-16T06:58:41;17;17;
56069;PMS5003;41944;52.078;-0.058;2022-08-16T07:01:08;22;20;
56069;PMS5003;41944;52.078;-0.058;2022-08-16T07:03:35;18;18;
56069;PMS5003;41944;52.078;-0.058;2022-08-16T07:06:02;21;20;
56069;PMS5003;41944;52.078;-0.058;2022-08-16T07:08:30;18;17;
56069;PMS5003;41944;52.078;-0.058;2022-08-16T07:10:57;19;18;
56069;PMS5003;41944;52.078;-0.058;2022-08-16T07:13:25;21;19;
56069;PMS5003;41944;52.078;-0.058;2022-08-16T07:15:52;15;14;
56069;PMS5003;41944;52.078;-0.058;2022-08-16T07:18:20;20;20;
56069;PMS5003;41944;52.078;-0.058;2022-08-16T07:20:48;18;18;
56069;PMS5003;41944;52.078;-0.058;2022-08-16T07:23:14;20;18;
56069;PMS5003;41944;52.078;-0.058;2022-08-16T07:25:41;20;20;
56069;PMS5003;41944;52.078;-0.058;2022-08-16T07:28:09;20;20;
56069;PMS5003;41944;52.078;-0.058;2022-08-16T07:30:38;28;24;
56069;PMS5003;41944;52.078;-0.058;2022-08-16T07:33:06;24;22;
56069;PMS5003;41944;52.078;-0.058;2022-08-16T07:35:35;24;24;
56069;PMS5003;41944;52.078;-0.058;2022-08-16T07:38:03;25;23;
56069;PMS5003;41944;52.078;-0.058;2022-08-16T07:40:32;26;25;
56069;PMS5003;41944;52.078;-0.058;2022-08-16T07:43:00;23;23;
56069;PMS5003;41944;52.078;-0.058;2022-08-16T07:45:27;30;28;
56069;PMS5003;41944;52.078;-0.058;2022-08-16T07:47:54;25;23;
56069;PMS5003;41944;52.078;-0.058;2022-08-16T07:50:22;23;22;
56069;PMS5003;41944;52.078;-0.058;2022-08-16T07:52:49;25;22;
56069;PMS5003;41944;52.078;-0.058;2022-08-16T07:55:17;24;24;
56069;PMS5003;41944;52.078;-0.058;2022-08-16T07:57:44;27;25;
56069;PMS5003;41944;52.078;-0.058;2022-08-16T08:00:12;25;25;
56069;PMS5003;41944;52.078;-0.058;2022-08-16T08:02:39;23;22;
56069;PMS5003;41944;52.078;-0.058;2022-08-16T08:05:07;28;27;
56069;PMS5003;41944;52.078;-0.058;2022-08-16T08:07:34;22;22;
56069;PMS5003;41944;52.078;-0.058;2022-08-16T08:10:02;28;26;
56069;PMS5003;41944;52.078;-0.058;2022-08-16T08:12:30;26;25;
56069;PMS5003;41944;52.078;-0.058;2022-08-16T08:14:58;26;24;
56069;PMS5003;41944;52.078;-0.058;2022-08-16T08:17:25;20;19;
56069;PMS5003;41944;52.078;-0.058;2022-08-16T08:19:53;23;23;
56069;PMS5003;41944;52.078;-0.058;2022-08-16T08:22:20;28;28;
56069;PMS5003;41944;52.078;-0.058;2022-08-16T08:24:48;25;25;
56069;PMS5003;41944;52.078;-0.058;2022-08-16T08:27:15;26;23;
56069;PMS5003;41944;52.078;-0.058;2022-08-16T08:29:43;29;29;
56069;PMS5003;41944;52.078;-0.058;2022-08-16T08:32:11;25;24;
56069;PMS5003;41944;52.078;-0.058;2022-08-16T08:34:37;27;27;
56069;PMS5003;41944;52.078;-0.058;2022-08-16T08:37:05;26;24;
56069;PMS5003;41944;52.078;-0.058;2022-08-16T08:39:32;27;24;
56069;PMS5003;41944;52.078;-0.058;2022-08-16T08:41:59;23;23;
56069;PMS5003;41944;52.078;-0.058;2022-08-16T08:44:26;29;27;
56069;PMS5003;41944;52.078;-0.058;2022-08-16T08:46:53;22;22;
56069;PMS5003;41944;52.078;-0.058;2022-08-16T08:49:21;23;23;
56069;PMS5003;41944;52.078;-0.058;2022-08-16T08:51:48;23;22;
56069;PMS5003;41944;52.078;-0.058;2022-08-16T08:54:15;26;22;
56069;PMS5003;41944;52.078;-0.058;2022-08-16T08:56:43;25;24;
56069;PMS5003;41944;52.078;-0.058;2022-08-16T08:59:10;24;23;
56069;PMS5003;41944;52.078;-0.058;2022-08-16T09:01:38;24;24;
56069;PMS5003;41944;52.078;-0.058;2022-08-16T09:04:07;24;22;
56069;PMS5003;41944;52.078;-0.058;2022-08-16T09:06:35;27;22;
56069;PMS5003;41944;52.078;-0.058;2022-08-16T09:09:02;22;20;
56069;PMS5003;41944;52.078;-0.058;2022-08-16T09:11:31;27;25;
56069;PMS5003;41944;52.078;-0.058;2022-08-16T09:13:59;24;22;
56069;PMS5003;41944;52.078;-0.058;2022-08-16T09:16:25;22;22;
56069;PMS5003;41944;52.078;-0.058;2022-08-16T09:18:53;21;21;
56069;PMS5003;41944;52.078;-0.058;2022-08-16T09:21:20;21;19;
56069;PMS5003;41944;52.078;-0.058;2022-08-16T09:23:48;23;22;
56069;PMS5003;41944;52.078;-0.058;2022-08-16T09:26:15;20;20;
56069;PMS5003;41944;52.078;-0.058;2022-08-16T09:28:42;20;19;
56069;PMS5003;41944;52.078;-0.058;2022-08-16T09:31:11;23;22;
56069;PMS5003;41944;52.078;-0.058;2022-08-16T09:33:38;21;21;
56069;PMS5003;41944;52.078;-0.058;2022-08-16T09:36:06;26;25;
56069;PMS5003;41944;52.078;-0.058;2022-08-16T09:38:34;21;21;
56069;PMS5003;41944;52.078;-0.058;2022-08-16T09:41:02;21;19;
56069;PMS5003;41944;52.078;-0.058;2022-08-16T09:43:33;21;19;
56069;PMS5003;41944;52.078;-0.058;2022-08-16T09:46:01;19;19;
56069;PMS5003;41944;52.078;-0.058;2022-08-16T09:48:30;19;17;
56069;PMS5003;41944;52.078;-0.058;2022-08-16T09:50:57;16;16;
56069;PMS5003;41944;52.078;-0.058;2022-08-16T09:53:24;27;25;
56069;PMS5003;41944;52.078;-0.058;2022-08-16T09:55:52;19;17;
56069;PMS5003;41944;52.078;-0.058;2022-08-16T09:58:22;19;17;
56069;PMS5003;41944;52.078;-0.058;2022-08-16T10:00:51;25;23;
56069;PMS5003;41944;52.078;-0.058;2022-08-16T10:03:19;18;17;
56069;PMS5003;41944;52.078;-0.058;2022-08-16T10:05:47;17;15;
56069;PMS5003;41944;52.078;-0.058;2022-08-16T10:08:15;28;27;
56069;PMS5003;41944;52.078;-0.058;2022-08-16T10:10:43;21;21;
56069;PMS5003;41944;52.078;-0.058;2022-08-16T10:13:11;16;15;
56069;PMS5003;41944;52.078;-0.058;2022-08-16T10:15:39;20;18;
56069;PMS5003;41944;52.078;-0.058;2022-08-16T10:18:08;18;17;
56069;PMS5003;41944;52.078;-0.058;2022-08-16T10:20:38;18;17;
56069;PMS5003;41944;52.078;-0.058;2022-08-16T10:23:08;18;18;
56069;PMS5003;41944;52.078;-0.058;2022-08-16T10:25:39;21;20;
56069;PMS5003;41944;52.078;-0.058;2022-08-16T10:28:08;22;21;
56069;PMS5003;41944;52.078;-0.058;2022-08-16T10:30:36;20;20;
56069;PMS5003;41944;52.078;-0.058;2022-08-16T10:33:04;24;23;
56069;PMS5003;41944;52.078;-0.058;2022-08-16T10:35:31;19;19;
56069;PMS5003;41944;52.078;-0.058;2022-08-16T10:37:59;19;19;
56069;PMS5003;41944;52.078;-0.058;2022-08-16T10:40:27;19;19;
56069;PMS5003;41944;52.078;-0.058;2022-08-16T10:42:53;20;18;
56069;PMS5003;41944;52.078;-0.058;2022-08-16T10:45:21;20;19;
56069;PMS5003;41944;52.078;-0.058;2022-08-16T10:47:48;21;20;
56069;PMS5003;41944;52.078;-0.058;2022-08-16T10:50:16;24;22;
56069;PMS5003;41944;52.078;-0.058;2022-08-16T10:52:43;23;21;
56069;PMS5003;41944;52.078;-0.058;2022-08-16T10:55:10;20;18;
56069;PMS5003;41944;52.078;-0.058;2022-08-16T10:57:38;21;21;
56069;PMS5003;41944;52.078;-0.058;2022-08-16T11:00:07;21;18;
56069;PMS5003;41944;52.078;-0.058;2022-08-16T11:02:36;20;17;
56069;PMS5003;41944;52.078;-0.058;2022-08-16T11:05:05;22;20;
56069;PMS5003;41944;52.078;-0.058;2022-08-16T11:07:34;19;19;
56069;PMS5003;41944;52.078;-0.058;2022-08-16T11:10:02;23;19;
56069;PMS5003;41944;52.078;-0.058;2022-08-16T11:12:29;19;19;
56069;PMS5003;41944;52.078;-0.058;2022-08-16T11:14:56;18;16;
56069;PMS5003;41944;52.078;-0.058;2022-08-16T11:17:23;24;23;
56069;PMS5003;41944;52.078;-0.058;2022-08-16T11:19:50;18;18;
56069;PMS5003;41944;52.078;-0.058;2022-08-16T11:22:17;18;18;
56069;PMS5003;41944;52.078;-0.058;2022-08-16T11:24:44;18;18;
56069;PMS5003;41944;52.078;-0.058;2022-08-16T11:27:13;23;21;
56069;PMS5003;41944;52.078;-0.058;2022-08-16T11:29:42;19;18;
56069;PMS5003;41944;52.078;-0.058;2022-08-16T11:32:09;21;18;
56069;PMS5003;41944;52.078;-0.058;2022-08-16T11:34:36;22;20;
56069;PMS5003;41944;52.078;-0.058;2022-08-16T11:37:03;17;17;
56069;PMS5003;41944;52.078;-0.058;2022-08-16T11:39:30;21;21;
56069;PMS5003;41944;52.078;-0.058;2022-08-16T11:41:57;20;18;
56069;PMS5003;41944;52.078;-0.058;2022-08-16T11:44:25;18;18;
56069;PMS5003;41944;52.078;-0.058;2022-08-16T11:46:52;20;19;
56069;PMS5003;41944;52.078;-0.058;2022-08-16T11:49:19;21;18;
56069;PMS5003;41944;52.078;-0.058;2022-08-16T11:51:46;30;29;
56069;PMS5003;41944;52.078;-0.058;2022-08-16T11:54:13;22;22;
56069;PMS5003;41944;52.078;-0.058;2022-08-16T11:56:41;20;19;
56069;PMS5003;41944;52.078;-0.058;2022-08-16T11:59:09;27;24;
56069;PMS5003;41944;52.078;-0.058;2022-08-16T12:01:36;24;24;
56069;PMS5003;41944;52.078;-0.058;2022-08-16T12:04:03;28;26;
56069;PMS5003;41944;52.078;-0.058;2022-08-16T12:06:30;25;25;
56069;PMS5003;41944;52.078;-0.058;2022-08-16T12:08:58;31;30;
56069;PMS5003;41944;52.078;-0.058;2022-08-16T12:11:25;31;30;
56069;PMS5003;41944;52.078;-0.058;2022-08-16T12:13:52;49;45;
56069;PMS5003;41944;52.078;-0.058;2022-08-16T12:16:19;34;32;
56069;PMS5003;41944;52.078;-0.058;2022-08-16T12:18:47;29;28;
56069;PMS5003;41944;52.078;-0.058;2022-08-16T12:21:15;36;36;
56069;PMS5003;41944;52.078;-0.058;2022-08-16T12:23:42;42;40;
56069;PMS5003;41944;52.078;-0.058;2022-08-16T12:26:09;43;40;
56069;PMS5003;41944;52.078;-0.058;2022-08-16T12:28:37;37;37;
56069;PMS5003;41944;52.078;-0.058;2022-08-16T12:31:05;43;42;
56069;PMS5003;41944;52.078;-0.058;2022-08-16T12:33:32;45;44;
56069;PMS5003;41944;52.078;-0.058;2022-08-16T12:36:00;41;41;
56069;PMS5003;41944;52.078;-0.058;2022-08-16T12:38:27;54;49;
56069;PMS5003;41944;52.078;-0.058;2022-08-16T12:40:54;46;43;
56069;PMS5003;41944;52.078;-0.058;2022-08-16T12:43:22;48;47;
56069;PMS5003;41944;52.078;-0.058;2022-08-16T12:45:51;42;41;
56069;PMS5003;41944;52.078;-0.058;2022-08-16T12:48:22;46;44;
56069;PMS5003;41944;52.078;-0.058;2022-08-16T12:50:51;48;44;
56069;PMS5003;41944;52.078;-0.058;2022-08-16T12:53:18;43;43;
56069;PMS5003;41944;52.078;-0.058;2022-08-16T12:55:46;46;42;
56069;PMS5003;41944;52.078;-0.058;2022-08-16T12:58:13;39;37;
56069;PMS5003;41944;52.078;-0.058;2022-08-16T13:00:41;37;37;
56069;PMS5003;41944;52.078;-0.058;2022-08-16T13:03:09;44;42;
56069;PMS5003;41944;52.078;-0.058;2022-08-16T13:05:36;47;46;
56069;PMS5003;41944;52.078;-0.058;2022-08-16T13:08:04;40;40;
56069;PMS5003;41944;52.078;-0.058;2022-08-16T13:10:31;31;31;
56069;PMS5003;41944;52.078;-0.058;2022-08-16T13:12:59;31;31;
56069;PMS5003;41944;52.078;-0.058;2022-08-16T13:15:26;29;29;
56069;PMS5003;41944;52.078;-0.058;2022-08-16T13:17:54;26;26;
56069;PMS5003;41944;52.078;-0.058;2022-08-16T13:20:23;25;23;
56069;PMS5003;41944;52.078;-0.058;2022-08-16T13:22:53;21;21;
56069;PMS5003;41944;52.078;-0.058;2022-08-16T13:25:25;24;23;
56069;PMS5003;41944;52.078;-0.058;2022-08-16T13:27:54;18;18;
56069;PMS5003;41944;52.078;-0.058;2022-08-16T13:30:22;18;18;
56069;PMS5003;41944;52.078;-0.058;2022-08-16T13:32:51;20;19;
56069;PMS5003;41944;52.078;-0.058;2022-08-16T13:35:18;23;23;
56069;PMS5003;41944;52.078;-0.058;2022-08-16T13:37:46;20;20;
56069;PMS5003;41944;52.078;-0.058;2022-08-16T13:40:14;17;17;
56069;PMS5003;41944;52.078;-0.058;2022-08-16T13:42:42;18;18;
56069;PMS5003;41944;52.078;-0.058;2022-08-16T13:45:10;21;20;
56069;PMS5003;41944;52.078;-0.058;2022-08-16T13:47:38;17;15;
56069;PMS5003;41944;52.078;-0.058;2022-08-16T13:50:06;16;16;
56069;PMS5003;41944;52.078;-0.058;2022-08-16T13:52:35;18;18;
56069;PMS5003;41944;52.078;-0.058;2022-08-16T13:55:03;17;17;
56069;PMS5003;41944;52.078;-0.058;2022-08-16T13:57:31;15;15;
56069;PMS5003;41944;52.078;-0.058;2022-08-16T13:59:57;14;13;
56069;PMS5003;41944;52.078;-0.058;2022-08-16T14:02:24;11;11;
56069;PMS5003;41944;52.078;-0.058;2022-08-16T14:04:51;10;10;
56069;PMS5003;41944;52.078;-0.058;2022-08-16T14:07:18;7;7;
56069;PMS5003;41944;52.078;-0.058;2022-08-16T14:09:45;7;7;
56069;PMS5003;41944;52.078;-0.058;2022-08-16T14:12:16;7;7;
56069;PMS5003;41944;52.078;-0.058;2022-08-16T14:14:45;8;7;
56069;PMS5003;41944;52.078;-0.058;2022-08-16T14:17:14;12;12;
56069;PMS5003;41944;52.078;-0.058;2022-08-16T14:19:41;10;10;
56069;PMS5003;41944;52.078;-0.058;2022-08-16T14:22:08;9;9;
56069;PMS5003;41944;52.078;-0.058;2022-08-16T14:24:35;8;8;
56069;PMS5003;41944;52.078;-0.058;2022-08-16T14:27:02;7;7;
56069;PMS5003;41944;52.078;-0.058;2022-08-16T14:29:30;13;10;
56069;PMS5003;41944;52.078;-0.058;2022-08-16T14:31:57;9;9;
56069;PMS5003;41944;52.078;-0.058;2022-08-16T14:34:25;8;6;
56069;PMS5003;41944;52.078;-0.058;2022-08-16T14:36:51;6;6;
56069;PMS5003;41944;52.078;-0.058;2022-08-16T14:39:18;7;7;
56069;PMS5003;41944;52.078;-0.058;2022-08-16T14:41:45;10;10;
56069;PMS5003;41944;52.078;-0.058;2022-08-16T14:44:12;8;8;
56069;PMS5003;41944;52.078;-0.058;2022-08-16T14:46:39;7;5;
56069;PMS5003;41944;52.078;-0.058;2022-08-16T14:49:06;28;28;
56069;PMS5003;41944;52.078;-0.058;2022-08-16T14:51:33;8;7;
56069;PMS5003;41944;52.078;-0.058;2022-08-16T14:54:00;16;13;
56069;PMS5003;41944;52.078;-0.058;2022-08-16T14:56:28;10;9;
56069;PMS5003;41944;52.078;-0.058;2022-08-16T14:58:55;12;11;
56069;PMS5003;41944;52.078;-0.058;2022-08-16T15:01:22;7;6;
56069;PMS5003;41944;52.078;-0.058;2022-08-16T15:03:49;8;8;
56069;PMS5003;41944;52.078;-0.058;2022-08-16T15:06:16;18;17;
56069;PMS5003;41944;52.078;-0.058;2022-08-16T15:08:43;20;19;
56069;PMS5003;41944;52.078;-0.058;2022-08-16T15:11:11;24;22;
56069;PMS5003;41944;52.078;-0.058;2022-08-16T15:13:38;23;22;
56069;PMS5003;41944;52.078;-0.058;2022-08-16T15:16:05;21;20;
56069;PMS5003;41944;52.078;-0.058;2022-08-16T15:18:33;21;21;
56069;PMS5003;41944;52.078;-0.058;2022-08-16T15:21:00;25;23;
56069;PMS5003;41944;52.078;-0.058;2022-08-16T15:23:30;20;17;
56069;PMS5003;41944;52.078;-0.058;2022-08-16T15:25:57;20;18;
56069;PMS5003;41944;52.078;-0.058;2022-08-16T15:28:24;22;19;
56069;PMS5003;41944;52.078;-0.058;2022-08-16T15:30:52;21;21;
56069;PMS5003;41944;52.078;-0.058;2022-08-16T15:33:19;25;25;
56069;PMS5003;41944;52.078;-0.058;2022-08-16T15:35:49;21;17;
56069;PMS5003;41944;52.078;-0.058;2022-08-16T15:38:15;23;21;
56069;PMS5003;41944;52.078;-0.058;2022-08-16T15:40:44;18;18;
56069;PMS5003;41944;52.078;-0.058;2022-08-16T15:43:10;22;22;
56069;PMS5003;41944;52.078;-0.058;2022-08-16T15:45:38;20;20;
56069;PMS5003;41944;52.078;-0.058;2022-08-16T15:48:05;30;27;
56069;PMS5003;41944;52.078;-0.058;2022-08-16T15:50:33;20;20;
56069;PMS5003;41944;52.078;-0.058;2022-08-16T15:53:03;16;16;
56069;PMS5003;41944;52.078;-0.058;2022-08-16T15:55:35;20;17;
56069;PMS5003;41944;52.078;-0.058;2022-08-16T15:58:02;23;20;
56069;PMS5003;41944;52.078;-0.058;2022-08-16T16:00:30;55;55;
56069;PMS5003;41944;52.078;-0.058;2022-08-16T16:02:59;14;14;
56069;PMS5003;41944;52.078;-0.058;2022-08-16T16:05:28;16;13;
56069;PMS5003;41944;52.078;-0.058;2022-08-16T16:07:55;15;15;